createdAt,value
2019-05-01T00:01:15.133Z,101423.34
2019-05-01T00:04:03.373Z,101422.12
2019-05-01T00:06:39.276Z,101416.55
2019-05-01T00:09:10.195Z,101417.02
2019-05-01T00:11:39.555Z,101416.06
2019-05-01T00:14:09.553Z,101407.18
2019-05-01T00:16:39.191Z,101406.50
2019-05-01T00:19:08.601Z,101405.92
2019-05-01T00:21:37.989Z,101398.44
2019-05-01T00:24:07.371Z,101401.72
2019-05-01T00:26:36.639Z,101394.34
2019-05-01T00:29:06.416Z,101389.81
2019-05-01T00:31:35.814Z,101395.00
2019-05-01T00:34:05.083Z,101386.55
2019-05-01T00:36:34.445Z,101385.90
2019-05-01T00:39:04.302Z,101381.44
2019-05-01T00:41:33.721Z,101382.98
2019-05-01T00:44:03.018Z,101377.19
2019-05-01T00:46:32.582Z,101377.37
2019-05-01T00:49:02.126Z,101376.00
2019-05-01T00:51:31.549Z,101377.05
2019-05-01T00:54:00.997Z,101370.10
2019-05-01T00:56:49.610Z,101365.22
2019-05-01T00:59:26.689Z,101360.91
2019-05-01T01:02:07.998Z,101363.45
2019-05-01T01:04:37.268Z,101359.90
2019-05-01T01:07:06.740Z,101354.14
2019-05-01T01:09:36.160Z,101347.24
2019-05-01T01:12:05.442Z,101344.44
2019-05-01T01:14:34.830Z,101340.59
2019-05-01T01:17:04.420Z,101343.03
2019-05-01T01:19:33.736Z,101341.06
2019-05-01T01:22:03.052Z,101336.97
2019-05-01T01:24:32.627Z,101336.97
2019-05-01T01:27:02.338Z,101321.36
2019-05-01T01:29:31.839Z,101318.09
2019-05-01T01:32:01.548Z,101317.02
2019-05-01T01:34:31.065Z,101317.73
2019-05-01T01:37:00.387Z,101314.35
2019-05-01T01:39:30.181Z,101317.73
2019-05-01T01:41:59.842Z,101321.47
2019-05-01T01:44:43.833Z,101311.91
2019-05-01T01:47:13.659Z,101297.25
2019-05-01T01:49:42.905Z,101279.20
2019-05-01T01:52:12.480Z,101284.84
2019-05-01T01:54:41.828Z,101291.55
2019-05-01T01:57:11.477Z,101308.66
2019-05-01T01:59:41.126Z,101301.37
2019-05-01T02:02:18.600Z,101298.70
2019-05-01T02:05:07.539Z,101291.39
2019-05-01T02:07:37.021Z,101289.51
2019-05-01T02:10:07.492Z,101286.92
2019-05-01T02:12:38.711Z,101270.63
2019-05-01T02:15:08.679Z,101276.19
2019-05-01T02:17:38.073Z,101275.98
2019-05-01T02:20:08.668Z,101279.89
2019-05-01T02:22:37.959Z,101276.42
2019-05-01T02:25:09.621Z,101269.31
2019-05-01T02:27:48.262Z,101274.02
2019-05-01T02:30:19.370Z,101268.55
2019-05-01T02:32:49.918Z,101262.53
2019-05-01T02:35:20.207Z,101252.12
2019-05-01T02:37:50.901Z,101256.29
2019-05-01T02:40:57.103Z,101257.66
2019-05-01T02:43:29.377Z,101251.38
2019-05-01T02:46:01.667Z,101244.28
2019-05-01T02:48:34.785Z,101242.41
2019-05-01T02:51:05.415Z,101231.20
2019-05-01T02:53:38.162Z,101236.41
2019-05-01T02:56:20.777Z,101237.00
2019-05-01T02:58:52.465Z,101225.52
2019-05-01T03:01:23.224Z,101222.78
2019-05-01T03:03:53.242Z,101217.59
2019-05-01T03:06:23.291Z,101212.11
2019-05-01T03:08:54.265Z,101208.22
2019-05-01T03:11:23.686Z,101210.28
2019-05-01T03:13:56.677Z,101200.06
2019-05-01T03:16:27.346Z,101199.38
2019-05-01T03:18:59.393Z,101189.95
2019-05-01T03:21:34.451Z,101195.97
2019-05-01T03:24:11.030Z,101190.55
2019-05-01T03:26:40.398Z,101186.27
2019-05-01T03:29:09.961Z,101177.86
2019-05-01T03:31:39.839Z,101175.56
2019-05-01T03:34:09.200Z,101166.39
2019-05-01T03:36:38.963Z,101162.91
2019-05-01T03:39:08.651Z,101163.30
2019-05-01T03:41:37.973Z,101159.55
2019-05-01T03:44:07.428Z,101152.28
2019-05-01T03:46:38.045Z,101159.52
2019-05-01T03:49:07.559Z,101153.05
2019-05-01T03:51:37.182Z,101148.50
2019-05-01T03:54:07.088Z,101152.41
2019-05-01T03:56:36.555Z,101153.82
2019-05-01T03:59:06.237Z,101160.73
2019-05-01T04:01:53.444Z,101157.77
2019-05-01T04:04:25.254Z,101163.84
2019-05-01T04:06:55.150Z,101168.88
2019-05-01T04:09:24.836Z,101163.50
2019-05-01T04:11:54.320Z,101160.03
2019-05-01T04:14:24.019Z,101161.77
2019-05-01T04:16:59.801Z,101154.73
2019-05-01T04:19:29.201Z,101155.36
2019-05-01T04:22:08.640Z,101153.21
2019-05-01T04:24:38.164Z,101153.77
2019-05-01T04:27:09.277Z,101148.05
2019-05-01T04:29:55.046Z,101144.24
2019-05-01T04:32:50.899Z,101144.80
2019-05-01T04:35:25.651Z,101140.72
2019-05-01T04:37:59.527Z,101148.17
2019-05-01T04:40:29.323Z,101140.80
2019-05-01T04:42:59.014Z,101143.31
2019-05-01T04:45:29.306Z,101144.99
2019-05-01T04:47:58.984Z,101138.17
2019-05-01T04:50:28.939Z,101135.22
2019-05-01T04:52:59.240Z,101138.83
2019-05-01T04:55:29.035Z,101138.61
2019-05-01T04:57:58.453Z,101131.33
2019-05-01T05:00:27.894Z,101138.01
2019-05-01T05:03:04.904Z,101130.42
2019-05-01T05:05:34.007Z,101127.80
2019-05-01T05:08:04.093Z,101125.95
2019-05-01T05:10:33.848Z,101126.09
2019-05-01T05:13:09.171Z,101124.54
2019-05-01T05:16:06.936Z,101121.01
2019-05-01T05:18:36.995Z,101118.83
2019-05-01T05:21:06.444Z,101125.69
2019-05-01T05:23:36.375Z,101126.78
2019-05-01T05:26:05.695Z,101115.75
2019-05-01T05:28:36.399Z,101111.62
2019-05-01T05:31:07.025Z,101109.12
2019-05-01T05:33:38.996Z,101105.50
2019-05-01T05:36:11.345Z,101106.30
2019-05-01T05:39:00.849Z,101098.85
2019-05-01T05:41:31.648Z,101092.45
2019-05-01T05:44:01.992Z,101084.11
2019-05-01T05:46:31.674Z,101084.64
2019-05-01T05:49:01.067Z,101085.69
2019-05-01T05:52:04.538Z,101088.09
2019-05-01T05:54:54.641Z,101081.36
2019-05-01T05:57:35.890Z,101081.30
2019-05-01T06:00:29.151Z,101078.76
2019-05-01T06:03:31.233Z,101074.54
2019-05-01T06:06:16.864Z,101072.41
2019-05-01T06:08:49.065Z,101069.03
2019-05-01T06:11:51.651Z,101073.74
2019-05-01T06:14:39.321Z,101072.80
2019-05-01T06:17:42.947Z,101071.09
2019-05-01T06:20:29.988Z,101064.89
2019-05-01T06:23:20.619Z,101060.59
2019-05-01T06:25:54.245Z,101062.10
2019-05-01T06:28:24.930Z,101051.21
2019-05-01T06:30:57.266Z,101053.48
2019-05-01T06:33:26.717Z,101039.73
2019-05-01T06:35:56.038Z,101039.53
2019-05-01T06:38:25.520Z,101047.22
2019-05-01T06:40:58.114Z,101038.43
2019-05-01T06:44:07.314Z,101039.11
2019-05-01T06:46:58.260Z,101034.69
2019-05-01T06:49:44.757Z,101034.14
2019-05-01T06:52:18.351Z,101021.89
2019-05-01T06:54:52.099Z,101028.77
2019-05-01T06:57:19.164Z,101030.63
2019-05-01T06:59:48.781Z,101033.98
2019-05-01T07:02:19.155Z,101032.34
2019-05-01T07:04:50.812Z,101029.58
2019-05-01T07:07:25.913Z,101028.98
2019-05-01T07:09:55.509Z,101024.17
2019-05-01T07:12:28.354Z,101023.39
2019-05-01T07:15:00.271Z,101016.52
2019-05-01T07:17:29.558Z,101015.14
2019-05-01T07:20:30.667Z,101020.89
2019-05-01T07:23:00.369Z,101014.73
2019-05-01T07:25:29.625Z,101016.70
2019-05-01T07:27:59.748Z,101008.38
2019-05-01T07:30:41.547Z,101014.57
2019-05-01T07:33:12.103Z,101005.05
2019-05-01T07:35:43.228Z,101005.88
2019-05-01T07:38:12.765Z,101005.22
2019-05-01T07:40:42.677Z,101001.95
2019-05-01T07:43:19.027Z,101001.61
2019-05-01T07:45:57.672Z,100998.27
2019-05-01T07:48:36.139Z,101001.14
2019-05-01T07:51:06.856Z,101008.98
2019-05-01T07:53:38.259Z,101002.84
2019-05-01T07:56:08.841Z,101003.15
2019-05-01T07:58:39.314Z,100995.58
2019-05-01T08:01:24.125Z,100986.66
2019-05-01T08:03:53.623Z,100996.11
2019-05-01T08:06:22.998Z,100983.48
2019-05-01T08:08:52.315Z,100990.41
2019-05-01T08:11:21.657Z,100983.98
2019-05-01T08:13:50.930Z,100988.00
2019-05-01T08:16:20.254Z,100984.58
2019-05-01T08:19:11.645Z,100978.77
2019-05-01T08:21:56.908Z,100985.16
2019-05-01T08:24:24.751Z,100979.48
2019-05-01T08:26:54.308Z,100984.52
2019-05-01T08:29:42.162Z,100985.89
2019-05-01T08:32:25.668Z,100992.09
2019-05-01T08:35:00.568Z,100985.36
2019-05-01T08:37:27.981Z,100974.11
2019-05-01T08:39:57.315Z,100982.34
2019-05-01T08:42:26.841Z,100973.24
2019-05-01T08:45:13.545Z,100972.27
2019-05-01T08:47:45.160Z,100971.30
2019-05-01T08:50:19.812Z,100976.42
2019-05-01T08:52:48.705Z,100970.87
2019-05-01T08:55:18.065Z,100970.78
2019-05-01T08:57:47.394Z,100985.59
2019-05-01T09:00:16.855Z,100985.83
2019-05-01T09:02:46.171Z,100979.67
2019-05-01T09:05:28.558Z,100985.03
2019-05-01T09:07:50.856Z,100983.65
2019-05-01T09:10:21.661Z,100980.63
2019-05-01T09:12:51.982Z,100981.80
2019-05-01T09:15:20.232Z,100989.59
2019-05-01T09:17:49.561Z,100971.26
2019-05-01T09:20:18.938Z,100971.26
2019-05-01T09:22:48.307Z,100980.50
2019-05-01T09:25:20.859Z,100972.64
2019-05-01T09:27:59.542Z,100970.27
2019-05-01T09:30:36.162Z,100965.20
2019-05-01T09:33:05.725Z,100961.70
2019-05-01T09:35:35.052Z,100950.23
2019-05-01T09:38:04.567Z,100955.41
2019-05-01T09:40:34.034Z,100951.44
2019-05-01T09:43:03.445Z,100952.86
2019-05-01T09:45:34.368Z,100945.70
2019-05-01T09:48:03.765Z,100945.38
2019-05-01T09:50:34.728Z,100937.55
2019-05-01T09:53:12.131Z,100933.08
2019-05-01T09:55:48.688Z,100933.41
2019-05-01T09:58:18.074Z,100920.71
2019-05-01T10:00:48.795Z,100918.22
2019-05-01T10:03:18.514Z,100921.17
2019-05-01T10:05:47.951Z,100916.81
2019-05-01T10:08:17.243Z,100921.45
2019-05-01T10:10:46.570Z,100916.05
2019-05-01T10:13:17.679Z,100914.09
2019-05-01T10:15:47.486Z,100913.45
2019-05-01T10:18:16.742Z,100903.62
2019-05-01T10:20:46.290Z,100905.28
2019-05-01T10:23:15.594Z,100894.33
2019-05-01T10:25:49.801Z,100906.55
2019-05-01T10:28:29.254Z,100904.30
2019-05-01T10:31:26.568Z,100897.80
2019-05-01T10:34:02.905Z,100899.13
2019-05-01T10:36:39.313Z,100898.17
2019-05-01T10:39:09.674Z,100894.30
2019-05-01T10:41:41.083Z,100899.83
2019-05-01T10:44:10.250Z,100899.64
2019-05-01T10:46:39.574Z,100897.56
2019-05-01T10:49:08.839Z,100891.32
2019-05-01T10:51:38.128Z,100887.45
2019-05-01T10:54:07.610Z,100887.80
2019-05-01T10:56:36.980Z,100879.25
2019-05-01T10:59:06.374Z,100883.18
2019-05-01T11:01:45.251Z,100876.17
2019-05-01T11:04:14.576Z,100869.41
2019-05-01T11:06:43.844Z,100872.90
2019-05-01T11:09:13.363Z,100870.80
2019-05-01T11:11:42.684Z,100866.34
2019-05-01T11:14:11.947Z,100867.90
2019-05-01T11:16:41.317Z,100865.75
2019-05-01T11:19:11.116Z,100865.84
2019-05-01T11:21:40.411Z,100859.43
2019-05-01T11:24:09.761Z,100858.55
2019-05-01T11:26:39.236Z,100856.12
2019-05-01T11:29:08.535Z,100858.85
2019-05-01T11:32:02.823Z,100856.21
2019-05-01T11:34:54.091Z,100851.47
2019-05-01T11:37:37.924Z,100840.91
2019-05-01T11:40:15.546Z,100843.77
2019-05-01T11:42:44.894Z,100836.22
2019-05-01T11:45:14.610Z,100839.48
2019-05-01T11:47:43.978Z,100831.66
2019-05-01T11:50:13.404Z,100827.14
2019-05-01T11:52:42.735Z,100827.58
2019-05-01T11:55:13.554Z,100819.98
2019-05-01T11:57:43.126Z,100817.89
2019-05-01T12:00:14.919Z,100815.05
2019-05-01T12:02:44.497Z,100812.24
2019-05-01T12:05:14.329Z,100817.88
2019-05-01T12:07:43.630Z,100819.86
2019-05-01T12:10:14.401Z,100816.29
2019-05-01T12:12:43.898Z,100803.84
2019-05-01T12:15:13.386Z,100814.73
2019-05-01T12:17:48.248Z,100803.08
2019-05-01T12:20:18.490Z,100799.44
2019-05-01T12:22:51.030Z,100794.40
2019-05-01T12:25:19.259Z,100798.55
2019-05-01T12:27:48.571Z,100792.94
2019-05-01T12:30:18.281Z,100788.52
2019-05-01T12:32:47.677Z,100789.27
2019-05-01T12:35:17.128Z,100775.63
2019-05-01T12:37:46.377Z,100776.23
2019-05-01T12:40:21.215Z,100778.22
2019-05-01T12:42:50.495Z,100779.96
2019-05-01T12:45:19.836Z,100774.73
2019-05-01T12:48:00.594Z,100770.14
2019-05-01T12:50:29.945Z,100775.66
2019-05-01T12:53:30.529Z,100770.70
2019-05-01T12:56:17.389Z,100762.47
2019-05-01T12:58:47.979Z,100759.88
2019-05-01T13:01:17.426Z,100749.73
2019-05-01T13:03:46.814Z,100748.42
2019-05-01T13:06:16.300Z,100746.16
2019-05-01T13:08:45.548Z,100737.31
2019-05-01T13:11:14.862Z,100742.46
2019-05-01T13:13:44.263Z,100728.16
2019-05-01T13:16:13.522Z,100732.55
2019-05-01T13:18:42.852Z,100730.25
2019-05-01T13:21:12.320Z,100727.23
2019-05-01T13:23:41.705Z,100721.05
2019-05-01T13:26:18.684Z,100725.73
2019-05-01T13:28:58.861Z,100723.41
2019-05-01T13:31:47.586Z,100714.95
2019-05-01T13:34:16.920Z,100712.55
2019-05-01T13:36:46.179Z,100711.84
2019-05-01T13:39:15.836Z,100708.75
2019-05-01T13:41:45.187Z,100697.48
2019-05-01T13:44:14.512Z,100697.48
2019-05-01T13:46:43.926Z,100696.99
2019-05-01T13:49:13.271Z,100688.59
2019-05-01T13:51:42.562Z,100686.05
2019-05-01T13:54:11.905Z,100679.33
2019-05-01T13:56:41.240Z,100670.52
2019-05-01T13:59:13.581Z,100664.55
2019-05-01T14:01:43.056Z,100666.43
2019-05-01T14:04:13.367Z,100661.97
2019-05-01T14:06:42.815Z,100661.70
2019-05-01T14:09:16.482Z,100653.47
2019-05-01T14:11:46.001Z,100652.78
2019-05-01T14:14:15.315Z,100648.95
2019-05-01T14:16:44.687Z,100645.64
2019-05-01T14:19:14.753Z,100648.05
2019-05-01T14:21:53.645Z,100645.48
2019-05-01T14:24:30.873Z,100654.39
2019-05-01T14:27:00.393Z,100646.05
2019-05-01T14:29:29.741Z,100640.30
2019-05-01T14:31:59.065Z,100643.38
2019-05-01T14:34:28.455Z,100649.17
2019-05-01T14:36:57.797Z,100637.41
2019-05-01T14:39:27.265Z,100639.40
2019-05-01T14:41:56.649Z,100638.98
2019-05-01T14:44:36.198Z,100637.59
2019-05-01T14:46:57.260Z,100631.32
2019-05-01T14:49:26.648Z,100634.70
2019-05-01T14:51:55.989Z,100633.47
2019-05-01T14:54:25.306Z,100620.50
2019-05-01T14:56:54.655Z,100627.62
2019-05-01T14:59:23.931Z,100627.91
2019-05-01T15:01:53.252Z,100629.02
2019-05-01T15:04:22.560Z,100618.59
2019-05-01T15:06:51.921Z,100619.31
2019-05-01T15:09:21.634Z,100612.23
2019-05-01T15:11:50.977Z,100610.90
2019-05-01T15:14:30.385Z,100604.73
2019-05-01T15:17:36.939Z,100604.20
2019-05-01T15:20:07.760Z,100596.49
2019-05-01T15:22:37.079Z,100599.67
2019-05-01T15:25:06.550Z,100588.78
2019-05-01T15:27:35.954Z,100587.27
2019-05-01T15:30:06.249Z,100582.05
2019-05-01T15:32:35.642Z,100579.16
2019-05-01T15:35:05.853Z,100574.01
2019-05-01T15:37:35.470Z,100569.02
2019-05-01T15:40:13.014Z,100553.64
2019-05-01T15:42:46.711Z,100555.72
2019-05-01T15:45:16.713Z,100561.09
2019-05-01T15:47:46.191Z,100562.11
2019-05-01T15:50:15.700Z,100553.52
2019-05-01T15:52:45.215Z,100552.44
2019-05-01T15:55:14.529Z,100546.66
2019-05-01T15:57:43.837Z,100544.27
2019-05-01T16:00:17.299Z,100544.55
2019-05-01T16:02:46.656Z,100546.13
2019-05-01T16:05:16.148Z,100534.16
2019-05-01T16:07:45.664Z,100543.31
2019-05-01T16:10:18.417Z,100542.30
2019-05-01T16:12:59.885Z,100544.55
2019-05-01T16:15:36.110Z,100537.82
2019-05-01T16:18:05.855Z,100538.69
2019-05-01T16:20:35.197Z,100544.36
2019-05-01T16:23:04.783Z,100540.24
2019-05-01T16:25:34.389Z,100532.23
2019-05-01T16:28:03.704Z,100532.55
2019-05-01T16:30:33.061Z,100525.48
2019-05-01T16:33:02.490Z,100525.91
2019-05-01T16:35:31.795Z,100517.13
2019-05-01T16:38:02.771Z,100520.58
2019-05-01T16:40:56.897Z,100507.36
2019-05-01T16:43:26.387Z,100508.82
2019-05-01T16:45:55.867Z,100501.63
2019-05-01T16:48:25.422Z,100500.25
2019-05-01T16:50:54.717Z,100497.13
2019-05-01T16:53:24.815Z,100495.41
2019-05-01T16:55:54.352Z,100483.02
2019-05-01T16:58:24.279Z,100486.33
2019-05-01T17:01:01.479Z,100480.45
2019-05-01T17:03:39.427Z,100482.85
2019-05-01T17:06:36.617Z,100480.23
2019-05-01T17:09:32.645Z,100480.72
2019-05-01T17:12:02.197Z,100471.23
2019-05-01T17:14:31.542Z,100475.57
2019-05-01T17:17:00.907Z,100478.23
2019-05-01T17:19:30.487Z,100470.33
2019-05-01T17:21:59.772Z,100460.21
2019-05-01T17:24:29.094Z,100469.52
2019-05-01T17:26:58.623Z,100465.25
2019-05-01T17:29:27.945Z,100461.72
2019-05-01T17:31:57.351Z,100469.77
2019-05-01T17:34:30.697Z,100465.48
2019-05-01T17:36:57.768Z,100457.31
2019-05-01T17:39:27.148Z,100463.16
2019-05-01T17:41:57.574Z,100459.75
2019-05-01T17:44:27.544Z,100459.55
2019-05-01T17:46:57.119Z,100454.19
2019-05-01T17:49:26.465Z,100454.97
2019-05-01T17:51:55.819Z,100460.37
2019-05-01T17:54:25.359Z,100457.78
2019-05-01T17:56:55.782Z,100455.95
2019-05-01T17:59:25.198Z,100454.72
2019-05-01T18:02:16.257Z,100450.69
2019-05-01T18:05:05.062Z,100448.13
2019-05-01T18:07:35.008Z,100444.76
2019-05-01T18:10:05.131Z,100441.66
2019-05-01T18:12:34.493Z,100438.69
2019-05-01T18:15:04.295Z,100445.78
2019-05-01T18:17:33.594Z,100445.97
2019-05-01T18:20:02.995Z,100446.96
2019-05-01T18:23:02.444Z,100437.44
2019-05-01T18:25:45.539Z,100438.14
2019-05-01T18:28:31.752Z,100438.61
2019-05-01T18:31:01.153Z,100430.67
2019-05-01T18:33:30.451Z,100436.16
2019-05-01T18:36:00.026Z,100436.41
2019-05-01T18:38:43.011Z,100430.80
2019-05-01T18:41:31.627Z,100429.30
2019-05-01T18:44:05.219Z,100423.31
2019-05-01T18:46:32.244Z,100430.91
2019-05-01T18:49:01.855Z,100423.66
2019-05-01T18:51:31.168Z,100418.27
2019-05-01T18:54:00.711Z,100420.81
2019-05-01T18:56:30.031Z,100403.50
2019-05-01T18:58:59.288Z,100405.88
2019-05-01T19:01:28.625Z,100404.45
2019-05-01T19:03:58.012Z,100403.69
2019-05-01T19:06:40.094Z,100394.35
2019-05-01T19:08:58.452Z,100398.77
2019-05-01T19:11:27.913Z,100393.62
2019-05-01T19:13:57.220Z,100392.66
2019-05-01T19:16:26.608Z,100393.83
2019-05-01T19:18:55.958Z,100396.99
2019-05-01T19:21:27.330Z,100391.51
2019-05-01T19:24:00.432Z,100393.47
2019-05-01T19:26:27.846Z,100388.60
2019-05-01T19:28:57.425Z,100392.25
2019-05-01T19:31:26.702Z,100388.38
2019-05-01T19:33:56.030Z,100392.84
2019-05-01T19:36:25.737Z,100392.84
2019-05-01T19:38:55.126Z,100390.33
2019-05-01T19:41:24.691Z,100386.69
2019-05-01T19:43:54.075Z,100385.77
2019-05-01T19:46:23.422Z,100377.66
2019-05-01T19:48:52.806Z,100381.69
2019-05-01T19:51:23.999Z,100387.80
2019-05-01T19:53:53.550Z,100382.17
2019-05-01T19:56:23.259Z,100381.21
2019-05-01T19:58:52.596Z,100380.94
2019-05-01T20:01:21.866Z,100377.80
2019-05-01T20:03:51.345Z,100377.24
2019-05-01T20:06:20.658Z,100377.38
2019-05-01T20:08:49.960Z,100359.61
2019-05-01T20:11:19.392Z,100369.88
2019-05-01T20:13:48.708Z,100360.48
2019-05-01T20:16:18.997Z,100357.98
2019-05-01T20:18:48.682Z,100348.23
2019-05-01T20:21:18.007Z,100344.72
2019-05-01T20:23:47.261Z,100349.95
2019-05-01T20:26:16.589Z,100346.95
2019-05-01T20:28:47.154Z,100343.41
2019-05-01T20:31:17.932Z,100332.34
2019-05-01T20:33:47.874Z,100332.81
2019-05-01T20:36:17.626Z,100329.63
2019-05-01T20:38:47.215Z,100327.42
2019-05-01T20:41:18.056Z,100325.83
2019-05-01T20:43:47.484Z,100324.52
2019-05-01T20:46:21.291Z,100311.55
2019-05-01T20:48:48.446Z,100319.38
2019-05-01T20:51:20.176Z,100303.52
2019-05-01T20:53:48.846Z,100311.83
2019-05-01T20:56:38.438Z,100302.46
2019-05-01T20:59:07.756Z,100296.48
2019-05-01T21:01:37.120Z,100298.70
2019-05-01T21:04:43.490Z,100289.59
2019-05-01T21:07:20.108Z,100285.70
2019-05-01T21:09:56.969Z,100278.84
2019-05-01T21:12:21.520Z,100277.47
2019-05-01T21:14:51.059Z,100271.23
2019-05-01T21:17:20.465Z,100269.08
2019-05-01T21:19:49.757Z,100269.89
2019-05-01T21:22:18.994Z,100268.83
2019-05-01T21:24:48.356Z,100268.77
2019-05-01T21:27:18.206Z,100256.42
2019-05-01T21:29:48.073Z,100253.36
2019-05-01T21:32:18.174Z,100256.77
2019-05-01T21:34:48.440Z,100245.78
2019-05-01T21:37:17.840Z,100238.42
2019-05-01T21:39:47.122Z,100238.17
2019-05-01T21:42:16.443Z,100235.14
2019-05-01T21:44:45.960Z,100235.20
2019-05-01T21:47:15.343Z,100226.65
2019-05-01T21:49:44.806Z,100227.72
2019-05-01T21:52:18.026Z,100229.09
2019-05-01T21:54:45.124Z,100222.55
2019-05-01T21:57:17.406Z,100219.77
2019-05-01T21:59:48.117Z,100214.53
2019-05-01T22:02:16.573Z,100219.23
2019-05-01T22:04:45.881Z,100212.44
2019-05-01T22:07:15.240Z,100210.94
2019-05-01T22:09:45.743Z,100197.16
2019-05-01T22:12:15.852Z,100205.43
2019-05-01T22:14:52.794Z,100198.05
2019-05-01T22:17:32.198Z,100200.80
2019-05-01T22:20:00.033Z,100190.91
2019-05-01T22:22:47.234Z,100183.77
2019-05-01T22:25:26.326Z,100190.41
2019-05-01T22:28:02.400Z,100185.71
2019-05-01T22:30:42.294Z,100175.85
2019-05-01T22:33:09.527Z,100169.31
2019-05-01T22:35:42.387Z,100174.56
2019-05-01T22:38:12.004Z,100174.26
2019-05-01T22:41:05.986Z,100164.12
2019-05-01T22:43:29.456Z,100166.80
2019-05-01T22:46:01.692Z,100152.60
2019-05-01T22:48:30.105Z,100152.66
2019-05-01T22:51:03.805Z,100152.10
2019-05-01T22:53:33.311Z,100148.69
2019-05-01T22:56:04.054Z,100137.42
2019-05-01T22:58:33.584Z,100135.55
2019-05-01T23:01:04.161Z,100126.50
2019-05-01T23:03:52.377Z,100126.50
2019-05-01T23:06:21.942Z,100120.00
2019-05-01T23:08:51.247Z,100116.18
2019-05-01T23:11:21.379Z,100110.33
2019-05-01T23:13:50.887Z,100114.67
2019-05-01T23:16:21.994Z,100107.30
2019-05-01T23:18:51.841Z,100097.75
2019-05-01T23:21:22.511Z,100097.72
2019-05-01T23:23:52.025Z,100088.09
2019-05-01T23:26:21.324Z,100086.98
2019-05-01T23:28:50.729Z,100063.09
2019-05-01T23:31:20.371Z,100072.88
2019-05-01T23:33:50.689Z,100070.47
2019-05-01T23:36:23.740Z,100058.74
2019-05-01T23:38:52.159Z,100057.05
2019-05-01T23:41:23.057Z,100040.95
2019-05-01T23:43:52.688Z,100042.89
2019-05-01T23:46:21.930Z,100041.77
2019-05-01T23:48:51.274Z,100043.04
2019-05-01T23:51:23.610Z,100038.41
2019-05-01T23:53:51.778Z,100026.97
2019-05-01T23:56:21.220Z,100027.47
2019-05-01T23:58:50.721Z,100016.81
